I19

Greene County-Lewis A Jackson Regional Airport

Dayton, Ohio, USA
METAR KI19 260535Z AUTO 35004KT 10SM CLR 08/01 A2994 RMK AO2 T00840014
Observed Flight Rules
Apr-26 @ 05:35 UTC (21 minutes ago) Visual Flight Rules
Wind Visibility Clouds
350° at 4 knots 10 miles
  • Clear skies
Temperatures Readings
Current 8°C / 46°F
Dewpoint 1°C / 34°F
Humidity 62%
Altimeter 29.94" Hg
Pressure 1014 hPa
Elevation 289
METAR KI19 260535Z AUTO 35004KT 10SM CLR 08/01 A2994 RMK AO2 T00840014
Observed Flight Rules
Apr-26 @ 05:35 UTC
(21 minutes ago)
VFR
Wind Visibility
350° at 4 knots 10 miles
Clouds
  • Clear skies
Temperature Dewpoint
8°C / 46°F 1°C / 34°F
Humidity Altimeter Pressure
62% 29.94" Hg 1014 hPa